This is the latest recevied weather packets stored in our database for station/object KC4LZN. If no packets are shown the sender has not sent any weather packets the latest 10 day(s).
| Time | Temp. | Humidity | Pressure | Rain* | Wind** | Luminosity | Snow |
|---|---|---|---|---|---|---|---|
| 1777927151 | 26.67° C | 47% | 1015.8 hPa | 0 mm | - | 171 W/m² | - |
| 1777926848 | 27.22° C | 48% | 1015.6 hPa | 0 mm | - | 321 W/m² | - |
| 1777926543 | 27.78° C | 46% | 1015.6 hPa | 0 mm | - | 451 W/m² | - |
| 1777926240 | 27.22° C | 46% | 1015.5 hPa | 0 mm | - | 684 W/m² | - |
| 1777925937 | 25.56° C | 50% | 1015.8 hPa | 0 mm | - | 398 W/m² | - |
| 1777925634 | 26.11° C | 50% | 1015.7 hPa | 0 mm | - | 120 W/m² | - |
| 1777925331 | 26.67° C | 48% | 1015.6 hPa | 0 mm | - | 143 W/m² | - |
| 1777925028 | 27.22° C | 47% | 1015.9 hPa | 0 mm | - | 218 W/m² | - |
| 1777924725 | 27.22° C | 46% | 1015.9 hPa | 0 mm | - | 714 W/m² | - |
| 1777924420 | 26.67° C | 48% | 1015.9 hPa | 0 mm | - | 632 W/m² | - |
| 1777924117 | 27.22° C | 46% | 1016.2 hPa | 0 mm | - | 429 W/m² | - |
| 1777923813 | 27.78° C | 45% | 1016 hPa | 0 mm | - | 757 W/m² | - |
| 1777923509 | 27.78° C | 46% | 1016.2 hPa | 0 mm | - | 170 W/m² | - |
| 1777923207 | 27.78° C | 44% | 1016.2 hPa | 0 mm | - | 782 W/m² | - |
| 1777922906 | 27.22° C | 44% | 1016.3 hPa | 0 mm | - | 594 W/m² | - |
| 1777922603 | 26.67° C | 46% | 1016.3 hPa | 0 mm | - | 242 W/m² | - |
| 1777922302 | 27.22° C | 45% | 1016.5 hPa | 0 mm | - | 213 W/m² | - |
| 1777921998 | 27.78° C | 43% | 1016.3 hPa | 0 mm | - | 227 W/m² | - |
| 1777921694 | 27.78° C | 42% | 1016.4 hPa | 0 mm | - | 838 W/m² | - |
| 1777921390 | 27.78° C | 44% | 1016.6 hPa | 0 mm | - | 832 W/m² | - |
| 1777921087 | 26.67° C | 45% | 1016.6 hPa | 0 mm | - | 811 W/m² | - |
| 1777920784 | 26.67° C | 45% | 1016.9 hPa | 0 mm | - | 240 W/m² | - |
| 1777920480 | 28.33° C | 41% | 1017 hPa | 0 mm | - | 313 W/m² | - |
| 1777920176 | 27.78° C | 44% | 1017 hPa | 0 mm | - | 874 W/m² | - |
| 1777919872 | 27.22° C | 43% | 1017 hPa | 0 mm | - | 857 W/m² | - |
* Rain latest hour (hover to see other rain measurements)
** Current wind speed in m/s (hover to see current wind gust speed)